Time;durP1;ratioP1;P1;durP2;ratioP2;P2;SDS_P1;SDS_P2;PMS_P1;PMS_P2;Temp;Humidity;BMP_temperature;BMP_pressure;BME280_temperature;BME280_humidity;BME280_pressure;Samples;Min_cycle;Max_cycle;Signal;HPM_P1;HPM_P2
2024/03/26 00:00:40;;;;;;;14.55;13.15;;;12.30;67.00;;;;;;5029343;27;113038;-58
2024/03/26 00:03:06;;;;;;;14.77;12.98;;;12.30;67.00;;;;;;5028595;28;113350;-57
2024/03/26 00:05:31;;;;;;;15.15;13.63;;;12.30;66.80;;;;;;5028069;28;113555;-57
2024/03/26 00:07:57;;;;;;;15.55;13.70;;;12.10;67.40;;;;;;5029410;28;112501;-57
2024/03/26 00:10:23;;;;;;;14.73;13.10;;;12.20;67.30;;;;;;5029423;28;112640;-57
2024/03/26 00:12:49;;;;;;;17.63;14.50;;;12.10;67.30;;;;;;5028110;28;114546;-57
2024/03/26 00:15:14;;;;;;;16.95;15.15;;;12.10;67.60;;;;;;5028258;27;112783;-57
2024/03/26 00:17:40;;;;;;;16.98;15.18;;;11.90;68.20;;;;;;5028995;28;112626;-57
2024/03/26 00:20:06;;;;;;;16.80;14.77;;;11.80;68.50;;;;;;5028798;27;113158;-57
2024/03/26 00:22:32;;;;;;;17.27;15.52;;;11.90;68.30;;;;;;5027819;27;113299;-57
2024/03/26 00:24:57;;;;;;;19.17;16.23;;;11.80;68.70;;;;;;5028587;28;112711;-57
2024/03/26 00:27:23;;;;;;;20.33;16.88;;;11.70;68.90;;;;;;5028959;28;112580;-57
2024/03/26 00:29:49;;;;;;;19.40;16.23;;;11.70;68.80;;;;;;5028635;28;112841;-57
2024/03/26 00:32:14;;;;;;;20.20;17.63;;;11.80;68.80;;;;;;5027715;27;114404;-62
2024/03/26 00:34:41;;;;;;;19.45;17.35;;;11.80;68.30;;;;;;5027889;28;112878;-57
2024/03/26 00:37:06;;;;;;;19.40;17.30;;;11.80;68.60;;;;;;5028969;28;112704;-57
2024/03/26 00:39:32;;;;;;;18.98;16.75;;;11.80;68.40;;;;;;5028721;28;112999;-57
2024/03/26 00:41:58;;;;;;;18.80;16.63;;;11.80;68.50;;;;;;5027830;28;113793;-57
2024/03/26 00:44:23;;;;;;;25.20;18.27;;;11.80;68.50;;;;;;5027839;28;112797;-57
2024/03/26 00:46:49;;;;;;;20.95;17.83;;;11.80;68.60;;;;;;5028482;28;112751;-57
2024/03/26 00:49:14;;;;;;;19.50;17.23;;;11.60;69.00;;;;;;5028475;27;112949;-55
2024/03/26 00:51:44;;;;;;;18.60;16.70;;;11.50;69.20;;;;;;5027554;28;113176;-57
2024/03/26 00:54:10;;;;;;;18.33;16.13;;;11.50;69.30;;;;;;5027440;28;112759;-57
2024/03/26 00:56:36;;;;;;;17.23;15.48;;;11.40;69.70;;;;;;5017623;28;112593;-57
2024/03/26 00:59:02;;;;;;;18.02;16.17;;;11.40;69.90;;;;;;5025269;28;112762;-58
2024/03/26 01:01:27;;;;;;;17.05;15.23;;;11.40;69.50;;;;;;5027567;28;113251;-57
2024/03/26 01:03:53;;;;;;;19.38;15.73;;;11.40;69.50;;;;;;5025465;28;113847;-57
2024/03/26 01:06:19;;;;;;;19.48;16.48;;;11.50;69.00;;;;;;5028418;28;112547;-57
2024/03/26 01:08:45;;;;;;;18.25;16.35;;;11.40;69.10;;;;;;5028379;28;112776;-58
2024/03/26 01:11:13;;;;;;;17.70;15.90;;;11.40;69.20;;;;;;5027113;28;113308;-57
2024/03/26 01:13:41;;;;;;;18.48;16.50;;;11.40;69.00;;;;;;5027229;27;112863;-57
2024/03/26 01:16:07;;;;;;;19.42;16.13;;;11.40;69.20;;;;;;5028067;28;112802;-57
2024/03/26 01:18:33;;;;;;;19.13;15.77;;;11.30;69.50;;;;;;5022895;28;113040;-57
2024/03/26 01:20:59;;;;;;;17.73;15.82;;;11.40;69.50;;;;;;5027257;28;113939;-57
2024/03/26 01:23:25;;;;;;;16.70;15.20;;;11.20;69.50;;;;;;5027002;28;112764;-57
2024/03/26 01:25:50;;;;;;;17.52;15.60;;;11.10;70.30;;;;;;5028684;28;112773;-58
2024/03/26 01:28:16;;;;;;;18.88;14.68;;;11.20;70.10;;;;;;5027826;28;112898;-58
2024/03/26 01:30:42;;;;;;;17.30;15.60;;;11.30;69.60;;;;;;5025661;28;113379;-57
2024/03/26 01:33:07;;;;;;;18.35;15.45;;;11.30;69.30;;;;;;5025892;27;112673;-57
2024/03/26 01:35:33;;;;;;;16.88;14.13;;;11.30;69.20;;;;;;5027770;28;112715;-57
2024/03/26 01:37:59;;;;;;;17.52;15.07;;;11.20;69.50;;;;;;5027717;28;112623;-57
2024/03/26 01:40:24;;;;;;;18.05;14.82;;;11.10;69.70;;;;;;5026605;28;113341;-57
2024/03/26 01:42:51;;;;;;;15.80;14.25;;;11.10;69.80;;;;;;5026934;28;112558;-57
2024/03/26 01:45:17;;;;;;;17.15;15.07;;;10.90;70.20;;;;;;5027669;28;112586;-57
2024/03/26 01:47:44;;;;;;;17.63;14.45;;;11.00;70.00;;;;;;5027529;28;112804;-57
2024/03/26 01:50:12;;;;;;;16.02;14.32;;;10.70;70.80;;;;;;5026458;28;114555;-57
2024/03/26 01:52:38;;;;;;;15.75;14.13;;;10.70;71.10;;;;;;5026681;27;112868;-57
2024/03/26 01:55:07;;;;;;;15.50;13.35;;;10.80;71.00;;;;;;5017235;27;112630;-57
2024/03/26 01:57:37;;;;;;;15.43;13.70;;;10.80;70.50;;;;;;5008397;28;112861;-57
2024/03/26 02:00:04;;;;;;;15.90;13.93;;;10.80;70.30;;;;;;5011994;28;114711;-57
2024/03/26 02:02:30;;;;;;;15.63;13.23;;;10.80;70.40;;;;;;5023248;27;112959;-57
2024/03/26 02:04:55;;;;;;;16.77;13.82;;;10.90;70.00;;;;;;5015155;28;112601;-58
2024/03/26 02:07:22;;;;;;;17.55;13.48;;;10.90;69.90;;;;;;5027199;27;112693;-57
2024/03/26 02:09:48;;;;;;;14.93;13.25;;;10.90;69.90;;;;;;5026464;28;113141;-58
2024/03/26 02:12:14;;;;;;;13.93;12.52;;;10.90;69.70;;;;;;5013135;28;113701;-57
2024/03/26 02:14:40;;;;;;;14.55;12.85;;;11.00;69.50;;;;;;5026277;28;112633;-56
2024/03/26 02:17:06;;;;;;;16.83;13.80;;;10.90;69.60;;;;;;5027462;28;112767;-57
2024/03/26 02:19:32;;;;;;;15.88;11.88;;;10.90;69.60;;;;;;5026144;28;113662;-57
2024/03/26 02:21:58;;;;;;;15.07;13.10;;;10.80;69.50;;;;;;5026131;28;113948;-58
2024/03/26 02:24:24;;;;;;;13.25;11.88;;;10.90;69.40;;;;;;5027173;28;112440;-57
2024/03/26 02:26:50;;;;;;;15.30;12.25;;;10.80;69.40;;;;;;5027144;28;112926;-57
2024/03/26 02:29:15;;;;;;;13.05;11.65;;;10.80;69.40;;;;;;5013203;28;114362;-56
2024/03/26 02:31:41;;;;;;;13.05;11.20;;;10.80;69.50;;;;;;5024804;28;113186;-58
2024/03/26 02:34:07;;;;;;;13.80;11.95;;;10.90;69.10;;;;;;5027290;28;112752;-57
2024/03/26 02:36:32;;;;;;;13.77;12.10;;;10.80;69.00;;;;;;5026728;28;112748;-57
2024/03/26 02:38:58;;;;;;;13.57;12.18;;;10.80;68.90;;;;;;5025949;27;112878;-57
2024/03/26 02:41:24;;;;;;;12.93;11.73;;;10.80;69.10;;;;;;5025831;28;112720;-57
2024/03/26 02:43:50;;;;;;;15.25;12.15;;;10.60;69.40;;;;;;5027974;27;112534;-57
2024/03/26 02:46:16;;;;;;;11.90;10.70;;;10.60;69.20;;;;;;5031099;28;113021;-57
2024/03/26 02:48:42;;;;;;;14.00;11.00;;;10.60;69.30;;;;;;5029364;28;113358;-57
2024/03/26 02:51:08;;;;;;;13.23;10.55;;;10.50;69.40;;;;;;5029625;28;112843;-57
2024/03/26 02:53:34;;;;;;;11.55;10.40;;;10.60;69.30;;;;;;5030131;28;112763;-57
2024/03/26 02:55:59;;;;;;;13.07;11.20;;;10.60;68.90;;;;;;5030450;28;112664;-54
2024/03/26 02:58:25;;;;;;;12.57;11.30;;;10.70;68.70;;;;;;5029307;28;113254;-56
2024/03/26 03:00:51;;;;;;;13.40;11.40;;;10.40;69.20;;;;;;5029431;28;113295;-57
2024/03/26 03:03:16;;;;;;;13.50;10.70;;;10.50;69.40;;;;;;5018616;28;112773;-57
2024/03/26 03:05:42;;;;;;;12.80;11.50;;;10.50;69.30;;;;;;5027762;28;112849;-58
2024/03/26 03:08:08;;;;;;;12.68;11.32;;;10.40;69.10;;;;;;5029233;28;113817;-57
2024/03/26 03:10:34;;;;;;;15.40;11.43;;;10.30;69.60;;;;;;5029054;28;112993;-57
2024/03/26 03:12:59;;;;;;;13.30;11.90;;;10.40;69.30;;;;;;5030215;28;113070;-58
2024/03/26 03:15:25;;;;;;;12.80;11.18;;;10.40;69.50;;;;;;5029990;27;112823;-57
2024/03/26 03:17:51;;;;;;;12.27;10.98;;;10.20;70.10;;;;;;5029093;28;113531;-58
2024/03/26 03:20:17;;;;;;;13.38;11.15;;;10.20;70.00;;;;;;5028985;27;113661;-57
2024/03/26 03:22:43;;;;;;;12.77;11.00;;;10.10;70.40;;;;;;5029806;27;112897;-57
2024/03/26 03:25:09;;;;;;;14.40;11.23;;;9.90;71.30;;;;;;5030322;27;112906;-58
2024/03/26 03:27:35;;;;;;;12.30;11.13;;;9.90;70.90;;;;;;5026797;28;116088;-58
2024/03/26 03:30:00;;;;;;;12.32;11.07;;;10.00;70.50;;;;;;5029020;28;112627;-58
2024/03/26 03:32:26;;;;;;;11.82;10.57;;;10.00;70.60;;;;;;5030073;28;112923;-58
2024/03/26 03:34:53;;;;;;;13.15;10.82;;;10.10;69.90;;;;;;5030090;27;113177;-57
2024/03/26 03:37:19;;;;;;;11.93;10.73;;;10.10;69.70;;;;;;5028674;28;113315;-57
2024/03/26 03:39:44;;;;;;;12.38;10.43;;;10.10;70.00;;;;;;5028325;28;113681;-58
2024/03/26 03:42:10;;;;;;;12.23;10.50;;;10.10;70.00;;;;;;5029718;28;112535;-56
2024/03/26 03:44:36;;;;;;;12.40;11.13;;;9.90;70.50;;;;;;5029538;28;112784;-57
2024/03/26 03:47:02;;;;;;;12.85;11.20;;;10.10;70.20;;;;;;5028581;27;115141;-58
2024/03/26 03:49:28;;;;;;;12.55;11.07;;;10.10;69.80;;;;;;5028842;28;112832;-57
2024/03/26 03:51:56;;;;;;;11.63;10.43;;;10.00;70.10;;;;;;5029536;28;112654;-57
2024/03/26 03:54:25;;;;;;;11.85;10.65;;;9.90;70.50;;;;;;5029403;28;113170;-58
2024/03/26 03:56:50;;;;;;;13.48;11.20;;;9.90;70.70;;;;;;5027343;28;113497;-57
2024/03/26 03:59:16;;;;;;;11.57;10.50;;;10.00;70.30;;;;;;5028897;28;113062;-58
2024/03/26 04:01:42;;;;;;;13.18;11.18;;;9.90;70.90;;;;;;5029526;28;112833;-58
2024/03/26 04:04:07;;;;;;;12.43;9.48;;;9.90;70.50;;;;;;5015124;28;112753;-57
2024/03/26 04:06:36;;;;;;;12.10;10.80;;;9.90;70.60;;;;;;5029709;28;113670;-57
2024/03/26 04:09:04;;;;;;;10.63;9.52;;;9.90;70.50;;;;;;5028237;28;112891;-57
2024/03/26 04:11:30;;;;;;;12.18;10.93;;;9.90;70.70;;;;;;5029598;28;113155;-57
2024/03/26 04:13:56;;;;;;;12.23;10.90;;;10.00;70.40;;;;;;5029453;27;112808;-57
2024/03/26 04:16:23;;;;;;;13.18;10.57;;;10.10;69.90;;;;;;5026676;28;114354;-58
2024/03/26 04:18:49;;;;;;;15.73;10.52;;;10.20;69.60;;;;;;5027826;28;114357;-58
2024/03/26 04:21:15;;;;;;;10.98;9.88;;;10.10;69.40;;;;;;5029208;28;113005;-57
2024/03/26 04:23:41;;;;;;;16.27;10.23;;;10.00;69.70;;;;;;5030219;27;113004;-57
2024/03/26 04:26:06;;;;;;;10.88;9.88;;;10.00;69.60;;;;;;5028292;28;112992;-57
2024/03/26 04:28:32;;;;;;;10.55;9.52;;;10.10;69.30;;;;;;5028733;28;113450;-57
2024/03/26 04:30:58;;;;;;;11.23;10.02;;;10.10;69.10;;;;;;5030018;28;112513;-57
2024/03/26 04:33:24;;;;;;;11.52;10.38;;;10.10;69.10;;;;;;5028859;28;112754;-57
2024/03/26 04:35:49;;;;;;;11.30;10.00;;;10.20;68.90;;;;;;5027869;28;113370;-52
2024/03/26 04:38:15;;;;;;;10.55;9.52;;;10.20;69.00;;;;;;5027620;28;113300;-57
2024/03/26 04:40:41;;;;;;;10.27;9.27;;;10.20;68.70;;;;;;5029744;28;112833;-57
2024/03/26 04:43:08;;;;;;;10.48;9.30;;;10.30;68.40;;;;;;5029716;28;112685;-56
2024/03/26 04:45:34;;;;;;;13.23;9.85;;;10.30;68.60;;;;;;5028606;28;113357;-56
2024/03/26 04:48:00;;;;;;;11.15;9.70;;;10.40;68.10;;;;;;5028391;28;112783;-57
2024/03/26 04:50:26;;;;;;;11.02;9.88;;;10.40;67.70;;;;;;5029695;27;112982;-57
2024/03/26 04:52:52;;;;;;;10.23;8.85;;;10.50;67.70;;;;;;5029771;27;113209;-57
2024/03/26 04:55:18;;;;;;;10.38;9.25;;;10.30;68.00;;;;;;5014437;28;113307;-56
2024/03/26 04:57:44;;;;;;;10.38;9.15;;;10.30;68.10;;;;;;5028090;28;114044;-56
2024/03/26 05:00:12;;;;;;;10.75;9.52;;;10.20;68.20;;;;;;5029318;28;112859;-56
2024/03/26 05:02:41;;;;;;;11.27;9.75;;;10.20;68.00;;;;;;5022679;28;112719;-57
2024/03/26 05:05:08;;;;;;;9.02;8.13;;;10.10;68.40;;;;;;5021037;28;113629;-56
2024/03/26 05:07:35;;;;;;;10.13;9.07;;;9.90;68.90;;;;;;5026811;27;113260;-57
2024/03/26 05:10:03;;;;;;;10.15;9.07;;;9.90;68.70;;;;;;5029342;28;112520;-56
2024/03/26 05:12:28;;;;;;;12.77;9.75;;;9.90;68.80;;;;;;5029105;28;112651;-57
2024/03/26 05:14:54;;;;;;;9.95;8.95;;;9.80;69.10;;;;;;5028118;28;113351;-56
2024/03/26 05:17:20;;;;;;;13.13;8.80;;;9.90;68.80;;;;;;5027942;28;114715;-57
2024/03/26 05:19:45;;;;;;;12.73;8.48;;;9.90;67.90;;;;;;5029420;28;112586;-56
2024/03/26 05:22:11;;;;;;;9.10;8.20;;;9.80;68.30;;;;;;5029322;28;112769;-57
2024/03/26 05:24:39;;;;;;;8.95;8.00;;;10.00;68.00;;;;;;5027730;28;114849;-57
2024/03/26 05:27:06;;;;;;;11.88;8.88;;;9.90;67.90;;;;;;5027777;28;113864;-57
2024/03/26 05:29:32;;;;;;;9.35;8.35;;;9.90;67.70;;;;;;5028980;27;112817;-57
2024/03/26 05:31:58;;;;;;;14.40;8.43;;;10.10;67.60;;;;;;5027797;28;112747;-57
2024/03/26 05:34:24;;;;;;;15.45;7.93;;;10.20;66.60;;;;;;5027552;28;114526;-57
2024/03/26 05:36:49;;;;;;;10.45;8.45;;;10.00;66.70;;;;;;5027496;28;113418;-56
2024/03/26 05:39:15;;;;;;;9.82;7.63;;;10.10;66.30;;;;;;5028750;28;112562;-56
2024/03/26 05:41:41;;;;;;;9.98;8.02;;;9.90;66.60;;;;;;5028759;27;112867;-56
2024/03/26 05:44:06;;;;;;;11.38;8.20;;;10.10;65.90;;;;;;5027977;28;113202;-56
2024/03/26 05:46:33;;;;;;;9.60;7.32;;;10.20;65.70;;;;;;5027706;27;113342;-56
2024/03/26 05:49:00;;;;;;;7.85;7.05;;;10.30;65.00;;;;;;5028706;27;112536;-56
2024/03/26 05:51:26;;;;;;;13.30;7.13;;;10.40;64.50;;;;;;5028262;27;112644;-58
2024/03/26 05:53:52;;;;;;;12.63;6.93;;;10.30;64.90;;;;;;5043106;27;114609;-58
2024/03/26 05:56:18;;;;;;;7.60;6.60;;;10.30;64.70;;;;;;5027417;27;112639;-58
2024/03/26 05:58:44;;;;;;;9.23;6.97;;;10.10;64.90;;;;;;5028730;27;112579;-58
2024/03/26 06:01:10;;;;;;;8.15;6.22;;;10.30;64.30;;;;;;5028548;27;112624;-59
2024/03/26 06:03:36;;;;;;;8.77;6.60;;;10.30;63.80;;;;;;5013264;27;113579;-59
2024/03/26 06:06:03;;;;;;;8.20;6.70;;;10.60;63.30;;;;;;5042701;27;115491;-58
2024/03/26 06:08:28;;;;;;;7.88;6.53;;;10.70;63.30;;;;;;5028466;27;112912;-58
2024/03/26 06:10:54;;;;;;;9.50;7.22;;;10.70;63.50;;;;;;5028380;28;112676;-58
2024/03/26 06:13:20;;;;;;;9.63;7.22;;;10.80;63.00;;;;;;5027308;27;113281;-56
2024/03/26 06:15:46;;;;;;;10.10;6.30;;;10.80;62.70;;;;;;5027055;28;113087;-57
2024/03/26 06:18:12;;;;;;;10.80;6.72;;;10.90;62.10;;;;;;5028056;28;112496;-58
2024/03/26 06:20:38;;;;;;;8.63;6.40;;;11.00;61.70;;;;;;5028159;28;113397;-58
2024/03/26 06:23:04;;;;;;;9.40;6.15;;;11.00;61.10;;;;;;5027036;28;114612;-58
2024/03/26 06:25:30;;;;;;;7.95;5.85;;;10.90;61.20;;;;;;5027564;28;114131;-59
2024/03/26 06:27:56;;;;;;;6.53;5.53;;;11.00;60.70;;;;;;5027836;27;112782;-58
2024/03/26 06:30:23;;;;;;;8.43;5.38;;;11.00;60.80;;;;;;5028265;27;112701;-59
2024/03/26 06:32:52;;;;;;;7.25;5.38;;;11.30;60.30;;;;;;5042541;27;114430;-59
2024/03/26 06:35:17;;;;;;;8.40;5.30;;;11.30;59.90;;;;;;5027036;28;112811;-58
2024/03/26 06:37:43;;;;;;;7.28;5.20;;;11.40;58.70;;;;;;5027985;28;112731;-59
2024/03/26 06:40:10;;;;;;;5.85;5.10;;;11.40;59.00;;;;;;5027845;28;112819;-56
2024/03/26 06:42:36;;;;;;;8.13;5.10;;;11.60;58.80;;;;;;5027029;28;113258;-58
2024/03/26 06:45:04;;;;;;;6.22;4.82;;;11.80;58.50;;;;;;5026953;28;112636;-59
2024/03/26 06:47:29;;;;;;;7.38;5.13;;;11.90;57.50;;;;;;5027757;27;113010;-57
2024/03/26 06:49:55;;;;;;;7.78;5.00;;;11.80;57.50;;;;;;5027714;28;112669;-59
2024/03/26 06:52:21;;;;;;;6.18;4.88;;;11.90;58.10;;;;;;5027089;28;113079;-59
2024/03/26 06:54:46;;;;;;;6.82;4.60;;;11.90;57.20;;;;;;5026947;28;112987;-59
2024/03/26 06:57:12;;;;;;;5.53;4.70;;;11.90;56.60;;;;;;5027827;28;112893;-57
2024/03/26 06:59:38;;;;;;;5.20;4.53;;;11.90;57.60;;;;;;5027910;28;112760;-59
2024/03/26 07:02:03;;;;;;;6.43;4.75;;;12.00;57.20;;;;;;5024903;28;113096;-59
2024/03/26 07:04:33;;;;;;;7.30;4.80;;;12.00;57.00;;;;;;5013781;28;112681;-59
2024/03/26 07:06:59;;;;;;;8.20;4.60;;;12.00;57.00;;;;;;5027567;28;112604;-57
2024/03/26 07:09:24;;;;;;;6.97;5.13;;;12.10;57.30;;;;;;5027595;28;112722;-57
2024/03/26 07:11:50;;;;;;;7.78;4.70;;;12.00;57.40;;;;;;5026370;27;114577;-57
2024/03/26 07:14:19;;;;;;;6.88;4.60;;;11.90;57.60;;;;;;5026651;27;113227;-58
2024/03/26 07:16:45;;;;;;;5.78;4.25;;;12.10;57.40;;;;;;5027442;27;112727;-59
2024/03/26 07:19:12;;;;;;;5.50;4.85;;;12.10;57.20;;;;;;5027298;28;112699;-58
2024/03/26 07:21:38;;;;;;;5.70;4.75;;;12.30;57.10;;;;;;5018409;28;114253;-57
2024/03/26 07:24:05;;;;;;;8.60;5.20;;;12.30;57.40;;;;;;5026191;27;113674;-59
2024/03/26 07:26:31;;;;;;;8.32;5.05;;;12.20;57.40;;;;;;5027287;28;112924;-59
2024/03/26 07:28:56;;;;;;;6.05;4.65;;;12.30;57.00;;;;;;5027669;28;112911;-59
2024/03/26 07:31:22;;;;;;;7.88;4.90;;;12.40;56.00;;;;;;5027884;27;113214;-56
2024/03/26 07:33:48;;;;;;;5.93;4.65;;;12.60;55.90;;;;;;5029611;27;113749;-57
2024/03/26 07:36:14;;;;;;;5.90;4.40;;;12.50;55.90;;;;;;5030795;27;112790;-58
2024/03/26 07:38:40;;;;;;;10.07;6.38;;;12.70;55.70;;;;;;5030433;28;112775;-58
2024/03/26 07:41:07;;;;;;;6.22;4.70;;;13.10;54.60;;;;;;5029670;27;113409;-59
2024/03/26 07:43:33;;;;;;;5.75;4.28;;;13.30;53.80;;;;;;5029620;28;113302;-58
2024/03/26 07:45:59;;;;;;;4.47;4.05;;;13.50;53.00;;;;;;5030679;28;112793;-58
2024/03/26 07:48:25;;;;;;;5.95;4.53;;;13.70;51.70;;;;;;5030559;28;113149;-58
2024/03/26 07:50:50;;;;;;;14.95;5.20;;;13.60;51.10;;;;;;5029572;28;113268;-58
2024/03/26 07:53:16;;;;;;;11.75;5.18;;;13.80;51.40;;;;;;5029085;28;112900;-59
2024/03/26 07:55:42;;;;;;;8.38;5.20;;;13.90;51.40;;;;;;5030553;28;113014;-58
2024/03/26 07:58:08;;;;;;;8.70;4.93;;;13.80;50.80;;;;;;5030617;28;112892;-58
2024/03/26 08:00:33;;;;;;;7.70;4.68;;;13.90;51.50;;;;;;5028506;27;113158;-58
2024/03/26 08:02:59;;;;;;;6.82;4.75;;;13.90;50.90;;;;;;5025723;28;112578;-59
2024/03/26 08:05:25;;;;;;;7.20;4.47;;;13.90;50.90;;;;;;5029365;28;112577;-59
2024/03/26 08:07:52;;;;;;;7.50;5.20;;;13.90;50.90;;;;;;5025404;28;113913;-59
2024/03/26 08:10:18;;;;;;;6.82;3.63;;;14.00;50.20;;;;;;5029059;28;114364;-59
2024/03/26 08:12:45;;;;;;;5.43;3.30;;;14.10;49.40;;;;;;5028889;28;112934;-59
2024/03/26 08:15:11;;;;;;;4.50;3.25;;;14.20;48.70;;;;;;5025170;28;112732;-59
2024/03/26 08:17:37;;;;;;;8.07;3.75;;;14.00;48.50;;;;;;5027397;27;113027;-59
2024/03/26 08:20:05;;;;;;;6.65;3.75;;;13.90;48.80;;;;;;5018050;28;114405;-59
2024/03/26 08:22:31;;;;;;;4.82;3.80;;;13.90;49.40;;;;;;5029079;28;114402;-59
2024/03/26 08:24:57;;;;;;;5.05;3.72;;;13.80;50.10;;;;;;5029600;27;112593;-59
2024/03/26 08:27:23;;;;;;;8.60;3.70;;;13.80;50.00;;;;;;5029531;28;115954;-59
2024/03/26 08:29:50;;;;;;;6.63;3.30;;;13.80;50.40;;;;;;5028634;28;113204;-59
2024/03/26 08:32:15;;;;;;;6.40;3.45;;;13.80;50.40;;;;;;5028926;28;112712;-59
2024/03/26 08:34:41;;;;;;;5.65;4.15;;;13.90;50.70;;;;;;5029991;28;112554;-59
2024/03/26 08:37:07;;;;;;;6.55;4.40;;;13.90;50.40;;;;;;5029949;28;113119;-59
2024/03/26 08:39:32;;;;;;;7.45;4.20;;;13.80;50.40;;;;;;5028658;28;113204;-59
2024/03/26 08:41:58;;;;;;;6.60;3.72;;;13.80;50.50;;;;;;5025964;27;113942;-59
2024/03/26 08:44:24;;;;;;;4.65;3.58;;;13.70;50.30;;;;;;5029139;28;112623;-59
2024/03/26 08:46:49;;;;;;;5.53;3.80;;;13.70;50.60;;;;;;5029716;28;112609;-59
2024/03/26 08:49:15;;;;;;;6.15;3.78;;;13.80;51.10;;;;;;5028280;27;114318;-59
2024/03/26 08:51:41;;;;;;;5.97;3.20;;;13.90;50.90;;;;;;5030804;27;113985;-58
2024/03/26 08:54:07;;;;;;;6.10;3.03;;;13.80;51.10;;;;;;5029573;28;112900;-59
2024/03/26 08:56:33;;;;;;;3.15;2.70;;;13.80;51.00;;;;;;5029416;27;112700;-60
2024/03/26 08:58:59;;;;;;;5.72;2.90;;;13.90;51.10;;;;;;5025411;28;114090;-59
2024/03/26 09:01:24;;;;;;;5.25;2.70;;;13.80;51.00;;;;;;5028064;28;112613;-59
2024/03/26 09:03:50;;;;;;;3.90;2.97;;;13.70;50.90;;;;;;5028338;28;113059;-59
2024/03/26 09:06:16;;;;;;;5.18;2.97;;;13.70;51.30;;;;;;5028931;28;113153;-61
2024/03/26 09:08:42;;;;;;;3.67;2.60;;;13.60;51.30;;;;;;5028188;28;113680;-59
2024/03/26 09:11:08;;;;;;;5.85;3.00;;;13.40;51.30;;;;;;5027971;28;114430;-59
2024/03/26 09:13:40;;;;;;;5.35;2.67;;;13.40;51.70;;;;;;5028900;27;112535;-59
2024/03/26 09:16:09;;;;;;;3.17;2.67;;;13.50;52.30;;;;;;5028022;28;112864;-59
2024/03/26 09:18:35;;;;;;;3.83;2.90;;;13.70;52.10;;;;;;5027735;28;113279;-59
2024/03/26 09:21:00;;;;;;;4.45;2.38;;;13.70;52.40;;;;;;5027712;28;112767;-59
2024/03/26 09:23:26;;;;;;;5.72;3.15;;;13.70;53.90;;;;;;5029342;28;113067;-59
2024/03/26 09:25:53;;;;;;;5.38;2.80;;;13.60;54.80;;;;;;5029563;28;112792;-59
2024/03/26 09:28:19;;;;;;;5.20;2.92;;;13.60;55.20;;;;;;5027550;28;113324;-59
2024/03/26 09:30:46;;;;;;;6.75;2.63;;;13.60;57.30;;;;;;5027119;27;114206;-59
2024/03/26 09:33:12;;;;;;;5.88;2.90;;;13.50;57.00;;;;;;5027433;28;112752;-59
2024/03/26 09:35:38;;;;;;;6.53;2.90;;;13.50;57.60;;;;;;5028958;28;112710;-59
2024/03/26 09:38:04;;;;;;;4.93;3.22;;;13.60;58.00;;;;;;5027612;28;113252;-59
2024/03/26 09:40:34;;;;;;;6.65;3.53;;;13.80;57.60;;;;;;5027510;28;113055;-59
2024/03/26 09:43:02;;;;;;;4.10;2.72;;;14.00;56.80;;;;;;5028422;27;113024;-59
2024/03/26 09:45:32;;;;;;;4.85;2.47;;;13.90;56.30;;;;;;5028561;28;112804;-59
2024/03/26 09:48:00;;;;;;;4.55;2.10;;;13.90;56.50;;;;;;5026879;27;113494;-59
2024/03/26 09:50:28;;;;;;;3.95;1.95;;;13.80;55.80;;;;;;5027368;28;112972;-59
2024/03/26 09:52:56;;;;;;;3.00;1.90;;;13.80;54.40;;;;;;5027615;27;113240;-59
2024/03/26 09:55:27;;;;;;;4.28;2.10;;;13.70;54.40;;;;;;5027572;28;112790;-59
2024/03/26 09:57:52;;;;;;;3.92;1.70;;;13.80;56.70;;;;;;5027124;27;113115;-59
2024/03/26 10:00:19;;;;;;;4.47;1.83;;;13.80;57.30;;;;;;5027290;27;113745;-59
2024/03/26 10:02:46;;;;;;;3.47;2.60;;;13.70;58.10;;;;;;5023709;28;112562;-60
2024/03/26 10:05:16;;;;;;;3.45;2.58;;;13.60;59.50;;;;;;5028731;27;112699;-60
2024/03/26 10:07:45;;;;;;;3.92;2.22;;;13.70;60.30;;;;;;5026801;27;113195;-58
2024/03/26 10:10:12;;;;;;;5.40;2.10;;;13.60;60.60;;;;;;5026916;27;113984;-59
2024/03/26 10:12:43;;;;;;;5.88;2.10;;;13.40;60.70;;;;;;5028340;28;112645;-59
2024/03/26 10:15:09;;;;;;;2.50;1.95;;;13.40;60.20;;;;;;5027229;28;112962;-59
2024/03/26 10:17:36;;;;;;;2.38;1.92;;;13.30;60.60;;;;;;5026894;28;113282;-59
2024/03/26 10:20:03;;;;;;;4.45;2.40;;;13.30;59.70;;;;;;5026553;28;113726;-59
2024/03/26 10:22:28;;;;;;;6.57;2.05;;;13.20;60.40;;;;;;5027926;27;112860;-59
2024/03/26 10:24:54;;;;;;;7.07;2.58;;;13.30;61.00;;;;;;5028158;28;112765;-59
2024/03/26 10:27:20;;;;;;;3.03;2.60;;;13.30;62.70;;;;;;5027035;28;113662;-60
2024/03/26 10:29:47;;;;;;;3.60;2.60;;;13.40;63.20;;;;;;5026746;27;114067;-59
2024/03/26 10:32:18;;;;;;;5.82;2.90;;;13.40;62.30;;;;;;5026720;28;112942;-60
2024/03/26 10:34:46;;;;;;;3.50;2.22;;;13.40;63.60;;;;;;5027921;27;112846;-59
2024/03/26 10:37:12;;;;;;;4.57;2.75;;;13.40;63.70;;;;;;5026950;27;113161;-59
2024/03/26 10:39:44;;;;;;;4.95;2.70;;;13.40;64.40;;;;;;5026704;28;113268;-59
2024/03/26 10:42:10;;;;;;;3.95;2.50;;;13.60;64.60;;;;;;5027679;28;112557;-59
2024/03/26 10:44:37;;;;;;;5.25;3.50;;;13.40;63.40;;;;;;5027729;28;112928;-59
2024/03/26 10:47:04;;;;;;;6.50;4.63;;;13.40;65.40;;;;;;5026899;28;113303;-60
2024/03/26 10:49:31;;;;;;;4.53;2.90;;;13.30;66.20;;;;;;5026071;27;113623;-59
2024/03/26 10:51:57;;;;;;;4.70;3.38;;;13.40;65.70;;;;;;5027805;27;112552;-59
2024/03/26 10:54:25;;;;;;;6.93;4.22;;;13.40;65.30;;;;;;5027860;27;112805;-59
2024/03/26 10:56:53;;;;;;;6.03;4.53;;;13.10;67.00;;;;;;5026812;28;113189;-59
2024/03/26 10:59:19;;;;;;;4.55;3.50;;;13.10;67.20;;;;;;5026464;27;113697;-59
2024/03/26 11:01:46;;;;;;;6.47;3.10;;;13.00;67.00;;;;;;5027749;28;112769;-57
2024/03/26 11:04:12;;;;;;;3.58;2.60;;;13.10;67.30;;;;;;5020189;28;114272;-59
2024/03/26 11:06:39;;;;;;;5.57;3.05;;;13.00;67.30;;;;;;5030307;27;113217;-59
2024/03/26 11:09:08;;;;;;;5.03;3.53;;;13.10;68.00;;;;;;5029478;28;113418;-59
2024/03/26 11:11:35;;;;;;;4.80;3.72;;;13.00;69.30;;;;;;5031067;28;112806;-59
2024/03/26 11:14:03;;;;;;;5.63;4.10;;;13.10;69.00;;;;;;5030947;27;112734;-59
2024/03/26 11:16:39;;;;;;;6.25;4.70;;;13.10;69.30;;;;;;5029326;28;114794;-59
2024/03/26 11:19:19;;;;;;;7.22;4.85;;;13.10;70.50;;;;;;5030007;28;113098;-59
2024/03/26 11:21:48;;;;;;;7.75;4.97;;;13.20;69.70;;;;;;5028660;27;113897;-58
2024/03/26 11:24:25;;;;;;;6.65;4.70;;;13.20;69.90;;;;;;5025701;28;113421;-59
2024/03/26 11:26:51;;;;;;;4.95;3.83;;;13.00;70.60;;;;;;5029882;27;113794;-58
2024/03/26 11:29:18;;;;;;;4.70;4.00;;;12.90;71.10;;;;;;5029783;27;113256;-59
2024/03/26 11:31:46;;;;;;;7.50;4.63;;;12.80;71.90;;;;;;5030779;27;112737;-58
2024/03/26 11:34:15;;;;;;;4.97;4.43;;;12.90;71.90;;;;;;5030360;28;112971;-59
2024/03/26 11:36:41;;;;;;;6.97;5.00;;;12.60;72.30;;;;;;5029440;28;113385;-59
2024/03/26 11:39:09;;;;;;;7.25;4.90;;;12.60;73.50;;;;;;5029144;27;112627;-59
2024/03/26 11:41:35;;;;;;;6.72;4.32;;;12.80;73.30;;;;;;5030090;28;112787;-59
2024/03/26 11:44:02;;;;;;;6.18;3.78;;;12.90;73.40;;;;;;5030364;27;112689;-59
2024/03/26 11:46:28;;;;;;;8.43;4.10;;;12.90;73.00;;;;;;5028967;28;113316;-59
2024/03/26 11:48:58;;;;;;;6.50;4.47;;;12.90;73.00;;;;;;5028756;28;112965;-59
2024/03/26 11:51:24;;;;;;;12.10;7.03;;;12.80;73.00;;;;;;5030581;27;113105;-59
2024/03/26 11:53:50;;;;;;;7.07;5.88;;;12.90;73.00;;;;;;5029926;27;112672;-58
2024/03/26 11:56:17;;;;;;;7.93;4.43;;;12.80;72.90;;;;;;5028761;28;113336;-59
2024/03/26 11:58:47;;;;;;;6.10;4.00;;;12.70;73.00;;;;;;5028801;27;112911;-60
2024/03/26 12:01:13;;;;;;;5.07;3.60;;;12.80;73.10;;;;;;5029940;28;112431;-59
2024/03/26 12:03:49;;;;;;;4.10;3.50;;;12.80;72.90;;;;;;5019148;28;112684;-58
2024/03/26 12:06:15;;;;;;;5.13;3.28;;;12.90;71.90;;;;;;5027713;28;114515;-58
2024/03/26 12:08:40;;;;;;;7.05;4.07;;;12.70;72.50;;;;;;5028563;28;114227;-58
2024/03/26 12:11:06;;;;;;;6.35;3.80;;;12.80;73.20;;;;;;5023367;28;113238;-58
2024/03/26 12:13:32;;;;;;;6.03;3.65;;;12.90;73.20;;;;;;5030160;28;112661;-58
2024/03/26 12:15:57;;;;;;;5.55;3.42;;;12.90;72.70;;;;;;5028449;27;113200;-59
2024/03/26 12:18:23;;;;;;;7.45;3.50;;;12.80;73.00;;;;;;5034069;27;114118;-60
2024/03/26 12:20:49;;;;;;;5.22;3.28;;;12.60;73.70;;;;;;5029585;28;112644;-60
2024/03/26 12:23:14;;;;;;;6.00;3.67;;;12.60;73.50;;;;;;5029415;28;112658;-60